Time;durP1;ratioP1;P1;durP2;ratioP2;P2;SDS_P1;SDS_P2;PMS_P1;PMS_P2;Temp;Humidity;BMP_temperature;BMP_pressure;BME280_temperature;BME280_humidity;BME280_pressure;Samples;Min_cycle;Max_cycle;Signal;HPM_P1;HPM_P2
2022/11/17 00:02:02;;;;;;;3.78;1.70;;;;;;;;;;5050390;28;20055;-43
2022/11/17 00:04:28;;;;;;;2.83;1.67;;;;;;;;;;5051880;28;20033;-43
2022/11/17 00:06:54;;;;;;;4.70;2.20;;;;;;;;;;5050375;28;20033;-44
2022/11/17 00:09:20;;;;;;;2.97;1.85;;;;;;;;;;5051444;28;20025;-44
2022/11/17 00:14:39;;;;;;;4.45;2.00;;;;;;;;;;5042636;28;20120;-43
2022/11/17 00:17:12;;;;;;;3.40;1.98;;;;;;;;;;5033430;28;20024;-43
2022/11/17 00:22:24;;;;;;;3.45;1.95;;;;;;;;;;5049986;28;20051;-44
2022/11/17 00:24:50;;;;;;;2.88;1.98;;;;;;;;;;5046855;28;20112;-45
2022/11/17 00:27:16;;;;;;;2.80;1.65;;;;;;;;;;5049329;28;20086;-43
2022/11/17 00:29:42;;;;;;;2.38;1.73;;;;;;;;;;5047938;28;20025;-44
2022/11/17 00:34:57;;;;;;;2.83;1.50;;;;;;;;;;5048897;28;20086;-44
2022/11/17 00:37:23;;;;;;;3.53;2.40;;;;;;;;;;5048672;28;20017;-44
2022/11/17 00:39:49;;;;;;;2.75;2.03;;;;;;;;;;5050656;28;20021;-44
2022/11/17 00:42:15;;;;;;;2.80;1.80;;;;;;;;;;5051063;28;20035;-46
2022/11/17 00:44:41;;;;;;;2.63;1.40;;;;;;;;;;5050069;28;20037;-47
2022/11/17 00:47:06;;;;;;;3.17;1.70;;;;;;;;;;5050718;28;20528;-44
2022/11/17 00:49:33;;;;;;;2.05;1.30;;;;;;;;;;5051131;28;20025;-43
2022/11/17 00:51:59;;;;;;;2.97;1.77;;;;;;;;;;5052020;28;20067;-43
2022/11/17 00:54:25;;;;;;;3.28;2.13;;;;;;;;;;5050664;28;20052;-43
2022/11/17 00:56:51;;;;;;;2.72;1.40;;;;;;;;;;5049346;28;20447;-44
2022/11/17 00:59:17;;;;;;;3.55;1.85;;;;;;;;;;5051194;28;20029;-43
2022/11/17 01:01:43;;;;;;;2.78;1.75;;;;;;;;;;5050962;28;20652;-43
2022/11/17 01:04:09;;;;;;;2.38;1.60;;;;;;;;;;5047845;28;20021;-43
2022/11/17 01:06:37;;;;;;;3.08;1.95;;;;;;;;;;5054567;28;20417;-47
2022/11/17 01:09:08;;;;;;;1.58;1.48;;;;;;;;;;5054476;28;20047;-44
2022/11/17 01:11:34;;;;;;;1.50;1.13;;;;;;;;;;5054251;28;20040;-44
2022/11/17 01:14:00;;;;;;;3.72;1.88;;;;;;;;;;5054455;28;20025;-44
2022/11/17 01:16:27;;;;;;;2.15;1.48;;;;;;;;;;5054108;28;20100;-43
2022/11/17 01:18:53;;;;;;;2.45;1.38;;;;;;;;;;5050929;28;20359;-43
2022/11/17 01:21:21;;;;;;;2.60;1.35;;;;;;;;;;5053945;28;20041;-43
2022/11/17 01:23:47;;;;;;;3.25;2.00;;;;;;;;;;5053788;28;20021;-44
2022/11/17 01:26:15;;;;;;;2.53;1.60;;;;;;;;;;5054243;28;20040;-44
2022/11/17 01:28:41;;;;;;;2.55;1.17;;;;;;;;;;5051568;28;20025;-44
2022/11/17 01:31:10;;;;;;;1.63;1.40;;;;;;;;;;5051047;28;20025;-44
2022/11/17 01:33:39;;;;;;;2.30;1.20;;;;;;;;;;5050005;28;20024;-48
2022/11/17 01:36:07;;;;;;;2.65;1.20;;;;;;;;;;5053833;28;20028;-44
2022/11/17 01:38:33;;;;;;;2.88;1.27;;;;;;;;;;5053707;28;20032;-44
2022/11/17 01:41:00;;;;;;;2.08;1.17;;;;;;;;;;5051916;28;20359;-43
2022/11/17 01:43:45;;;;;;;2.25;1.52;;;;;;;;;;5055874;28;20390;-46
2022/11/17 01:46:13;;;;;;;2.75;1.50;;;;;;;;;;5050942;28;20108;-43
2022/11/17 01:48:40;;;;;;;2.28;1.50;;;;;;;;;;5048527;28;20033;-46
2022/11/17 01:51:07;;;;;;;2.28;1.35;;;;;;;;;;5052451;28;20033;-43
2022/11/17 01:53:34;;;;;;;3.45;1.50;;;;;;;;;;5053334;28;20410;-43
2022/11/17 01:56:03;;;;;;;1.85;1.00;;;;;;;;;;5052575;28;20536;-43
2022/11/17 01:58:37;;;;;;;2.40;1.70;;;;;;;;;;5046119;28;20036;-44
2022/11/17 02:01:03;;;;;;;2.20;1.13;;;;;;;;;;5050748;28;20041;-44
2022/11/17 02:03:31;;;;;;;2.58;1.60;;;;;;;;;;5053820;28;20035;-43
2022/11/17 02:06:02;;;;;;;2.20;1.17;;;;;;;;;;5051708;28;20013;-43
2022/11/17 02:08:30;;;;;;;2.25;1.40;;;;;;;;;;5053606;28;20025;-44
2022/11/17 02:10:56;;;;;;;1.77;1.13;;;;;;;;;;5051387;28;20071;-44
2022/11/17 02:13:22;;;;;;;1.77;1.20;;;;;;;;;;5059248;28;20103;-46
2022/11/17 02:15:48;;;;;;;2.05;1.50;;;;;;;;;;5052392;28;20068;-43
2022/11/17 02:18:15;;;;;;;3.20;1.30;;;;;;;;;;5052336;28;20493;-43
2022/11/17 02:20:54;;;;;;;1.85;1.20;;;;;;;;;;5050984;28;20056;-44
2022/11/17 02:23:20;;;;;;;1.48;1.20;;;;;;;;;;5055607;28;20207;-43
2022/11/17 02:25:49;;;;;;;2.25;1.80;;;;;;;;;;5047344;28;20120;-44
2022/11/17 02:28:21;;;;;;;1.75;1.33;;;;;;;;;;5053116;28;20517;-44
2022/11/17 02:31:11;;;;;;;1.42;1.00;;;;;;;;;;5051178;28;20052;-43
2022/11/17 02:33:40;;;;;;;1.65;1.00;;;;;;;;;;5055056;28;20032;-48
2022/11/17 02:36:12;;;;;;;1.92;1.15;;;;;;;;;;5032789;28;20483;-43
2022/11/17 02:38:56;;;;;;;1.35;1.00;;;;;;;;;;5051593;28;20033;-48
2022/11/17 02:41:30;;;;;;;1.85;1.23;;;;;;;;;;5046366;28;20055;-45
2022/11/17 02:44:14;;;;;;;2.03;1.10;;;;;;;;;;5052273;28;20169;-43
2022/11/17 02:46:46;;;;;;;2.35;1.30;;;;;;;;;;5051092;28;20079;-43
2022/11/17 02:49:14;;;;;;;1.95;1.20;;;;;;;;;;5042876;28;21117;-46
2022/11/17 02:51:42;;;;;;;1.83;1.55;;;;;;;;;;5051086;28;20033;-44
2022/11/17 02:54:08;;;;;;;2.50;1.10;;;;;;;;;;5052962;28;20039;-43
2022/11/17 02:56:39;;;;;;;2.50;1.20;;;;;;;;;;5051741;28;20025;-43
2022/11/17 02:59:05;;;;;;;3.63;1.92;;;;;;;;;;5052995;28;20100;-44
2022/11/17 03:01:34;;;;;;;3.03;1.58;;;;;;;;;;5055199;28;20029;-43
2022/11/17 03:04:19;;;;;;;1.77;1.23;;;;;;;;;;5055142;28;20040;-44
2022/11/17 03:07:00;;;;;;;2.10;1.33;;;;;;;;;;5050551;28;20025;-46
2022/11/17 03:09:29;;;;;;;2.42;1.30;;;;;;;;;;5046223;28;20393;-43
2022/11/17 03:12:09;;;;;;;1.65;1.10;;;;;;;;;;5050852;28;20033;-44
2022/11/17 03:14:55;;;;;;;2.03;1.27;;;;;;;;;;5052849;28;20120;-44
2022/11/17 03:17:24;;;;;;;1.73;0.90;;;;;;;;;;5052158;28;20029;-44
2022/11/17 03:19:55;;;;;;;1.58;1.17;;;;;;;;;;5050960;28;20124;-44
2022/11/17 03:22:24;;;;;;;2.95;1.30;;;;;;;;;;5052015;28;20029;-43
2022/11/17 03:24:52;;;;;;;2.38;1.10;;;;;;;;;;5049782;28;20021;-43
2022/11/17 03:27:30;;;;;;;1.40;1.30;;;;;;;;;;5044666;28;20017;-43
2022/11/17 03:29:59;;;;;;;1.70;1.25;;;;;;;;;;5051096;28;20036;-43
2022/11/17 03:32:26;;;;;;;1.90;1.13;;;;;;;;;;5058290;28;20029;-43
2022/11/17 03:34:55;;;;;;;1.70;1.10;;;;;;;;;;5054713;28;20380;-44
2022/11/17 03:37:22;;;;;;;1.67;1.20;;;;;;;;;;5055648;28;20095;-43
2022/11/17 03:39:53;;;;;;;1.55;1.10;;;;;;;;;;5054706;28;20071;-44
2022/11/17 03:42:23;;;;;;;1.88;1.00;;;;;;;;;;5055554;28;20065;-43
2022/11/17 03:44:53;;;;;;;1.75;0.82;;;;;;;;;;5038507;28;20740;-45
2022/11/17 03:47:20;;;;;;;1.25;0.90;;;;;;;;;;5056075;28;20029;-46
2022/11/17 03:49:51;;;;;;;2.88;1.10;;;;;;;;;;5056629;28;20040;-44
2022/11/17 03:52:17;;;;;;;1.52;1.00;;;;;;;;;;5057374;28;20491;-44
2022/11/17 03:54:43;;;;;;;2.88;1.00;;;;;;;;;;5059816;28;20060;-43
2022/11/17 03:57:19;;;;;;;1.63;0.95;;;;;;;;;;5055802;28;20056;-45
2022/11/17 03:59:54;;;;;;;2.20;1.50;;;;;;;;;;5054486;28;20036;-43
2022/11/17 04:02:21;;;;;;;1.17;0.93;;;;;;;;;;5053005;28;20104;-44
2022/11/17 04:05:05;;;;;;;2.60;1.10;;;;;;;;;;5054097;28;20060;-44
2022/11/17 04:07:41;;;;;;;1.70;1.10;;;;;;;;;;5042736;28;20047;-43
2022/11/17 04:10:08;;;;;;;1.80;1.00;;;;;;;;;;5061522;28;20032;-44
2022/11/17 04:15:55;;;;;;;1.33;0.98;;;;;;;;;;5044401;28;20032;-44
2022/11/17 04:18:17;;;;;;;2.58;1.45;;;;;;;;;;5051275;28;20394;-43
2022/11/17 04:20:44;;;;;;;2.38;1.40;;;;;;;;;;5049463;28;20547;-44
2022/11/17 04:23:13;;;;;;;1.40;1.00;;;;;;;;;;5051711;28;20036;-43
2022/11/17 04:28:35;;;;;;;1.88;1.05;;;;;;;;;;5051284;28;20391;-44
2022/11/17 04:31:10;;;;;;;1.55;0.85;;;;;;;;;;5050212;28;20029;-43
2022/11/17 04:33:37;;;;;;;1.25;0.82;;;;;;;;;;5049817;28;20521;-50
2022/11/17 04:36:03;;;;;;;2.38;0.90;;;;;;;;;;5049635;28;20029;-44
2022/11/17 04:38:29;;;;;;;2.50;0.95;;;;;;;;;;5043461;28;20036;-44
2022/11/17 04:43:47;;;;;;;1.70;1.13;;;;;;;;;;5045069;28;20040;-43
2022/11/17 04:46:14;;;;;;;1.05;0.80;;;;;;;;;;5050860;28;20474;-44
2022/11/17 04:48:40;;;;;;;1.77;1.10;;;;;;;;;;5049883;28;20143;-44
2022/11/17 04:51:06;;;;;;;1.20;0.90;;;;;;;;;;5050596;28;20040;-44
2022/11/17 04:53:32;;;;;;;1.20;0.82;;;;;;;;;;5050771;28;20029;-43
2022/11/17 04:56:01;;;;;;;1.83;1.15;;;;;;;;;;5044458;28;20029;-44
2022/11/17 04:58:27;;;;;;;1.00;0.93;;;;;;;;;;5050941;28;20029;-43
2022/11/17 05:00:53;;;;;;;1.50;0.85;;;;;;;;;;5049650;28;20398;-44
2022/11/17 05:03:20;;;;;;;1.20;0.93;;;;;;;;;;5051033;28;20037;-43
2022/11/17 05:05:46;;;;;;;1.25;0.82;;;;;;;;;;5049819;28;20457;-44
2022/11/17 05:08:12;;;;;;;2.25;1.15;;;;;;;;;;5050418;28;20021;-44
2022/11/17 05:13:26;;;;;;;1.10;0.77;;;;;;;;;;5050499;28;20120;-44
2022/11/17 05:18:38;;;;;;;1.33;0.95;;;;;;;;;;5050868;28;20071;-48
2022/11/17 05:21:05;;;;;;;2.00;1.17;;;;;;;;;;5049335;28;20490;-45
2022/11/17 05:26:16;;;;;;;1.73;0.98;;;;;;;;;;5049016;28;20098;-44
2022/11/17 05:28:42;;;;;;;1.23;0.90;;;;;;;;;;5050035;28;20101;-43
2022/11/17 05:31:09;;;;;;;0.85;0.75;;;;;;;;;;5050078;28;20475;-44
2022/11/17 05:33:35;;;;;;;1.52;0.80;;;;;;;;;;5050160;28;20033;-44
2022/11/17 05:36:01;;;;;;;1.23;0.90;;;;;;;;;;5044271;28;20135;-46
2022/11/17 05:38:27;;;;;;;2.60;0.90;;;;;;;;;;5028434;28;20351;-43
2022/11/17 05:40:53;;;;;;;3.58;0.90;;;;;;;;;;5041740;28;20028;-44
2022/11/17 05:43:19;;;;;;;1.27;0.90;;;;;;;;;;5049303;28;20405;-44
2022/11/17 05:45:45;;;;;;;1.15;0.75;;;;;;;;;;5050142;28;20029;-44
2022/11/17 05:48:11;;;;;;;1.75;1.00;;;;;;;;;;5045384;28;20025;-44
2022/11/17 05:50:37;;;;;;;3.35;0.70;;;;;;;;;;5052874;28;20094;-49
2022/11/17 05:53:03;;;;;;;1.75;0.82;;;;;;;;;;5053199;28;20033;-44
2022/11/17 05:55:30;;;;;;;0.90;0.80;;;;;;;;;;5054027;28;20033;-44
2022/11/17 05:57:58;;;;;;;1.58;1.10;;;;;;;;;;5053377;28;20292;-44
2022/11/17 06:00:24;;;;;;;4.60;1.00;;;;;;;;;;5053442;28;20032;-44
2022/11/17 06:02:52;;;;;;;1.70;1.20;;;;;;;;;;5053289;28;20056;-43
2022/11/17 06:05:18;;;;;;;1.65;1.08;;;;;;;;;;5053808;28;20054;-44
2022/11/17 06:07:44;;;;;;;1.27;0.73;;;;;;;;;;5052935;28;20098;-45
2022/11/17 06:10:10;;;;;;;1.02;0.70;;;;;;;;;;5053295;28;20466;-43
2022/11/17 06:12:36;;;;;;;2.22;1.10;;;;;;;;;;5053470;28;20032;-49
2022/11/17 06:15:02;;;;;;;1.67;0.88;;;;;;;;;;5052764;28;20423;-44
2022/11/17 06:17:30;;;;;;;1.83;1.00;;;;;;;;;;5045813;28;20029;-43
2022/11/17 06:20:02;;;;;;;2.15;1.00;;;;;;;;;;5052085;28;20041;-43
2022/11/17 06:22:28;;;;;;;1.58;1.02;;;;;;;;;;5053634;28;20425;-43
2022/11/17 06:24:55;;;;;;;1.60;0.73;;;;;;;;;;5054507;28;20074;-43
2022/11/17 06:27:21;;;;;;;0.75;0.70;;;;;;;;;;5050178;28;20061;-44
2022/11/17 06:29:47;;;;;;;1.17;0.80;;;;;;;;;;5051941;28;20078;-44
2022/11/17 06:32:15;;;;;;;1.90;0.90;;;;;;;;;;5053194;28;20043;-44
2022/11/17 06:34:41;;;;;;;1.40;1.15;;;;;;;;;;5052432;28;20033;-49
2022/11/17 06:37:08;;;;;;;0.77;0.60;;;;;;;;;;5052948;28;20031;-44
2022/11/17 06:39:33;;;;;;;1.70;1.40;;;;;;;;;;5053055;28;20482;-45
2022/11/17 06:41:59;;;;;;;1.27;0.80;;;;;;;;;;5051950;28;20142;-44
2022/11/17 06:44:25;;;;;;;1.33;0.80;;;;;;;;;;5053228;28;20489;-44
2022/11/17 06:46:51;;;;;;;1.77;0.80;;;;;;;;;;5052281;28;20370;-43
2022/11/17 06:49:17;;;;;;;2.40;0.70;;;;;;;;;;5053336;28;20033;-44
2022/11/17 06:51:43;;;;;;;4.47;0.85;;;;;;;;;;5051700;28;20029;-44
2022/11/17 06:54:11;;;;;;;2.63;0.80;;;;;;;;;;5053297;28;20032;-43
2022/11/17 06:56:37;;;;;;;3.03;0.85;;;;;;;;;;5051738;28;20035;-48
2022/11/17 06:59:03;;;;;;;3.15;0.80;;;;;;;;;;5051840;28;20104;-43
2022/11/17 07:01:29;;;;;;;4.38;1.15;;;;;;;;;;5052631;28;20104;-43
2022/11/17 07:03:55;;;;;;;1.95;0.80;;;;;;;;;;5052119;28;20040;-44
2022/11/17 07:06:21;;;;;;;6.30;0.85;;;;;;;;;;5050644;28;20025;-44
2022/11/17 07:08:47;;;;;;;2.88;0.90;;;;;;;;;;5052969;28;20029;-44
2022/11/17 07:11:18;;;;;;;2.92;0.82;;;;;;;;;;5052990;28;20070;-43
2022/11/17 07:13:44;;;;;;;1.85;0.80;;;;;;;;;;5051256;28;20376;-43
2022/11/17 07:16:14;;;;;;;3.42;1.00;;;;;;;;;;5051422;28;20081;-44
2022/11/17 07:18:40;;;;;;;1.15;0.98;;;;;;;;;;5051182;28;20079;-45
2022/11/17 07:21:08;;;;;;;1.70;1.00;;;;;;;;;;5051362;28;20052;-44
2022/11/17 07:23:35;;;;;;;2.28;1.02;;;;;;;;;;5052687;28;20049;-44
2022/11/17 07:26:01;;;;;;;1.13;0.68;;;;;;;;;;5032998;28;20518;-43
2022/11/17 07:28:27;;;;;;;1.42;0.80;;;;;;;;;;5052281;28;20391;-44
2022/11/17 07:30:53;;;;;;;1.00;0.68;;;;;;;;;;5050652;28;20033;-43
2022/11/17 07:33:19;;;;;;;4.47;0.90;;;;;;;;;;5051919;28;20028;-45
2022/11/17 07:35:46;;;;;;;1.65;0.60;;;;;;;;;;5051012;28;20058;-44
2022/11/17 07:38:12;;;;;;;1.23;0.63;;;;;;;;;;5052125;28;20032;-45
2022/11/17 07:40:39;;;;;;;1.48;0.60;;;;;;;;;;5051231;28;20489;-48
2022/11/17 07:43:05;;;;;;;1.13;0.63;;;;;;;;;;5051643;28;20501;-44
2022/11/17 07:45:31;;;;;;;2.03;0.70;;;;;;;;;;5051517;28;20037;-43
2022/11/17 07:48:01;;;;;;;2.08;0.90;;;;;;;;;;5051250;28;20031;-44
2022/11/17 07:50:27;;;;;;;1.42;0.80;;;;;;;;;;5043324;28;20025;-44
2022/11/17 07:52:54;;;;;;;1.33;0.80;;;;;;;;;;5050967;28;20041;-44
2022/11/17 07:55:21;;;;;;;1.95;0.93;;;;;;;;;;5051187;28;20025;-43
2022/11/17 07:57:47;;;;;;;0.77;0.60;;;;;;;;;;5050927;28;20543;-44
2022/11/17 08:00:13;;;;;;;1.20;0.70;;;;;;;;;;5050954;28;20022;-43
2022/11/17 08:02:40;;;;;;;0.93;0.80;;;;;;;;;;5051190;28;20033;-49
2022/11/17 08:05:06;;;;;;;1.77;0.68;;;;;;;;;;5050966;28;20028;-43
2022/11/17 08:07:32;;;;;;;0.82;0.60;;;;;;;;;;5051391;28;20070;-43
2022/11/17 08:09:58;;;;;;;1.33;0.60;;;;;;;;;;5050290;28;20271;-43
2022/11/17 08:12:24;;;;;;;1.20;0.70;;;;;;;;;;5051827;28;20036;-44
2022/11/17 08:14:50;;;;;;;0.80;0.70;;;;;;;;;;5050386;28;20060;-43
2022/11/17 08:17:16;;;;;;;2.30;0.65;;;;;;;;;;5051190;28;20485;-44
2022/11/17 08:19:42;;;;;;;1.05;0.85;;;;;;;;;;5050050;28;20049;-44
2022/11/17 08:22:08;;;;;;;1.23;0.65;;;;;;;;;;5051476;28;20029;-44
2022/11/17 08:24:34;;;;;;;1.65;0.65;;;;;;;;;;5051198;28;20029;-44
2022/11/17 08:27:00;;;;;;;2.05;0.60;;;;;;;;;;5050126;28;20036;-43
2022/11/17 08:29:26;;;;;;;1.70;0.82;;;;;;;;;;5048409;28;20021;-44
2022/11/17 08:31:52;;;;;;;1.30;0.60;;;;;;;;;;5049916;28;20036;-44
2022/11/17 08:34:18;;;;;;;1.27;0.70;;;;;;;;;;5051064;28;20377;-43
2022/11/17 08:36:44;;;;;;;0.88;0.57;;;;;;;;;;5049132;28;20033;-44
2022/11/17 08:39:10;;;;;;;0.52;0.50;;;;;;;;;;5051090;28;20028;-44
2022/11/17 08:41:36;;;;;;;0.88;0.60;;;;;;;;;;5050480;28;20375;-48
2022/11/17 08:44:02;;;;;;;1.42;0.93;;;;;;;;;;5050589;28;20462;-44
2022/11/17 08:46:28;;;;;;;2.85;0.63;;;;;;;;;;5042667;28;20029;-44
2022/11/17 08:48:54;;;;;;;1.42;0.70;;;;;;;;;;5050315;28;20032;-44
2022/11/17 08:51:20;;;;;;;1.35;0.90;;;;;;;;;;5050861;28;20074;-44
2022/11/17 08:53:46;;;;;;;1.25;0.60;;;;;;;;;;5050236;28;20048;-44
2022/11/17 08:56:12;;;;;;;1.33;0.93;;;;;;;;;;5049967;28;20474;-44
2022/11/17 08:58:39;;;;;;;0.90;0.60;;;;;;;;;;5050585;28;20029;-48
2022/11/17 09:01:07;;;;;;;1.23;0.70;;;;;;;;;;5050819;28;20052;-43
2022/11/17 09:03:33;;;;;;;1.30;0.65;;;;;;;;;;5051017;28;20029;-43
2022/11/17 09:06:00;;;;;;;0.75;0.60;;;;;;;;;;5049255;28;20039;-44
2022/11/17 09:08:27;;;;;;;1.23;0.60;;;;;;;;;;5051010;28;20125;-43
2022/11/17 09:10:53;;;;;;;1.67;0.80;;;;;;;;;;5049851;28;20034;-44
2022/11/17 09:13:19;;;;;;;1.02;0.52;;;;;;;;;;5050444;28;20032;-44
2022/11/17 09:15:45;;;;;;;0.80;0.60;;;;;;;;;;5049650;28;20025;-44
2022/11/17 09:18:11;;;;;;;1.42;0.65;;;;;;;;;;5050222;28;20383;-44
2022/11/17 09:20:37;;;;;;;2.47;0.50;;;;;;;;;;5047080;28;20094;-49
2022/11/17 09:23:03;;;;;;;1.98;0.60;;;;;;;;;;5054031;28;20033;-44
2022/11/17 09:25:29;;;;;;;0.75;0.50;;;;;;;;;;5054305;28;20029;-44
2022/11/17 09:27:55;;;;;;;0.63;0.55;;;;;;;;;;5053497;28;20482;-43
2022/11/17 09:30:21;;;;;;;0.60;0.40;;;;;;;;;;5054161;28;20017;-43
2022/11/17 09:32:48;;;;;;;0.82;0.43;;;;;;;;;;5053768;28;20033;-44
2022/11/17 09:35:14;;;;;;;0.82;0.43;;;;;;;;;;5035837;28;20375;-44
2022/11/17 09:37:40;;;;;;;0.50;0.47;;;;;;;;;;5053836;28;20025;-46
2022/11/17 09:40:08;;;;;;;0.80;0.50;;;;;;;;;;5053872;28;20116;-43
2022/11/17 09:42:39;;;;;;;1.42;0.50;;;;;;;;;;5054308;28;20131;-44
2022/11/17 09:45:08;;;;;;;0.50;0.40;;;;;;;;;;5053869;28;20501;-43
2022/11/17 09:47:40;;;;;;;0.88;0.60;;;;;;;;;;5054918;28;20488;-44
2022/11/17 09:50:21;;;;;;;1.00;0.60;;;;;;;;;;5053926;28;20056;-44
2022/11/17 09:52:50;;;;;;;0.50;0.40;;;;;;;;;;5046622;28;20024;-44
2022/11/17 09:55:29;;;;;;;0.73;0.38;;;;;;;;;;5053613;28;20386;-44
2022/11/17 09:58:03;;;;;;;0.80;0.40;;;;;;;;;;5053013;28;20036;-44
2022/11/17 10:00:31;;;;;;;2.63;0.70;;;;;;;;;;5053796;28;20565;-43
2022/11/17 10:02:57;;;;;;;1.60;0.65;;;;;;;;;;5052881;28;20035;-44
2022/11/17 10:05:28;;;;;;;1.58;0.40;;;;;;;;;;5053513;28;20381;-44
2022/11/17 10:07:55;;;;;;;0.77;0.57;;;;;;;;;;5053331;28;20024;-44
2022/11/17 10:10:33;;;;;;;1.42;0.50;;;;;;;;;;5053376;28;20036;-44
2022/11/17 10:13:00;;;;;;;1.40;0.57;;;;;;;;;;5053039;28;20075;-44
2022/11/17 10:15:41;;;;;;;0.63;0.40;;;;;;;;;;5052798;28;20052;-44
2022/11/17 10:18:12;;;;;;;1.27;0.60;;;;;;;;;;5053905;28;20024;-42
2022/11/17 10:20:38;;;;;;;0.85;0.45;;;;;;;;;;5052189;28;20116;-48
2022/11/17 10:23:04;;;;;;;0.60;0.45;;;;;;;;;;5053342;28;20033;-43
2022/11/17 10:25:35;;;;;;;1.05;0.52;;;;;;;;;;5035423;28;20039;-43
2022/11/17 10:28:01;;;;;;;2.03;0.50;;;;;;;;;;5052722;28;20029;-43
2022/11/17 10:30:27;;;;;;;0.80;0.70;;;;;;;;;;5050166;28;20654;-42
2022/11/17 10:32:54;;;;;;;0.57;0.47;;;;;;;;;;5050915;28;20044;-43
2022/11/17 10:35:22;;;;;;;0.70;0.43;;;;;;;;;;5052709;28;20419;-44
2022/11/17 10:37:56;;;;;;;1.05;0.47;;;;;;;;;;5052469;28;20032;-44
2022/11/17 10:40:23;;;;;;;1.35;0.68;;;;;;;;;;5053235;28;20108;-45
2022/11/17 10:43:01;;;;;;;2.08;0.60;;;;;;;;;;5052541;28;20394;-44
2022/11/17 10:45:27;;;;;;;1.20;0.50;;;;;;;;;;5051859;28;20182;-44
2022/11/17 10:48:06;;;;;;;0.88;0.82;;;;;;;;;;5052439;28;20030;-45
2022/11/17 10:50:32;;;;;;;1.80;0.43;;;;;;;;;;5052660;28;20474;-44
2022/11/17 10:53:18;;;;;;;0.63;0.45;;;;;;;;;;5052395;28;20027;-44
2022/11/17 10:55:44;;;;;;;1.20;0.60;;;;;;;;;;5051663;28;20082;-44
2022/11/17 10:58:24;;;;;;;1.08;0.50;;;;;;;;;;5048120;28;20032;-44
2022/11/17 11:00:57;;;;;;;1.83;0.70;;;;;;;;;;5051646;28;20039;-44
2022/11/17 11:03:30;;;;;;;1.00;0.73;;;;;;;;;;5052557;28;20067;-44
2022/11/17 11:06:20;;;;;;;1.23;0.50;;;;;;;;;;5051427;28;20028;-44
2022/11/17 11:09:04;;;;;;;1.23;0.45;;;;;;;;;;5052005;28;20025;-44
2022/11/17 11:11:39;;;;;;;2.00;0.57;;;;;;;;;;5052412;28;20360;-44
2022/11/17 11:14:10;;;;;;;0.55;0.50;;;;;;;;;;5053200;28;20037;-44
2022/11/17 11:16:36;;;;;;;2.13;0.57;;;;;;;;;;5052389;28;20055;-49
2022/11/17 11:19:02;;;;;;;0.95;0.60;;;;;;;;;;5051813;28;20025;-44
2022/11/17 11:21:43;;;;;;;1.02;0.73;;;;;;;;;;5043206;28;20115;-44
2022/11/17 11:24:28;;;;;;;1.98;0.60;;;;;;;;;;5052439;28;20029;-44
2022/11/17 11:26:57;;;;;;;0.82;0.47;;;;;;;;;;5051208;28;20025;-44
2022/11/17 11:29:26;;;;;;;1.98;0.50;;;;;;;;;;5052149;28;20037;-44
2022/11/17 11:31:57;;;;;;;0.98;0.50;;;;;;;;;;5050150;28;20487;-45
2022/11/17 11:34:32;;;;;;;1.20;0.50;;;;;;;;;;5052555;28;20083;-44
2022/11/17 11:37:04;;;;;;;1.00;0.50;;;;;;;;;;5050962;28;20051;-44
2022/11/17 11:39:30;;;;;;;;;;;;;;;;;;5052516;28;20044;-45
2022/11/17 11:41:59;;;;;;;0.80;0.40;;;;;;;;;;5050789;28;19917;-44
2022/11/17 11:44:31;;;;;;;2.83;0.73;;;;;;;;;;5051753;28;20025;-44
2022/11/17 11:47:05;;;;;;;1.08;0.70;;;;;;;;;;5050304;28;20025;-44
2022/11/17 11:49:43;;;;;;;0.60;0.32;;;;;;;;;;5052017;28;20024;-44
2022/11/17 11:52:19;;;;;;;0.50;0.40;;;;;;;;;;5051834;28;20036;-44
2022/11/17 11:54:50;;;;;;;1.13;0.40;;;;;;;;;;5050555;28;20108;-44
2022/11/17 11:57:17;;;;;;;0.52;0.50;;;;;;;;;;5051453;28;20021;-44
2022/11/17 11:59:55;;;;;;;2.38;0.40;;;;;;;;;;5050391;28;20079;-44
2022/11/17 12:02:40;;;;;;;0.98;0.52;;;;;;;;;;5051626;28;20025;-44
2022/11/17 12:05:06;;;;;;;3.17;0.77;;;;;;;;;;5050654;28;20043;-45
2022/11/17 12:07:32;;;;;;;0.70;0.50;;;;;;;;;;5051104;28;20021;-43
2022/11/17 12:09:57;;;;;;;1.00;0.60;;;;;;;;;;5050495;28;20811;-44
2022/11/17 12:12:29;;;;;;;1.90;0.70;;;;;;;;;;5051441;28;20494;-44
2022/11/17 12:15:11;;;;;;;0.90;0.40;;;;;;;;;;5050103;28;20070;-44
2022/11/17 12:17:38;;;;;;;1.55;0.60;;;;;;;;;;5051048;28;20033;-49
2022/11/17 12:20:05;;;;;;;2.70;0.73;;;;;;;;;;5050244;28;20045;-44
2022/11/17 12:22:31;;;;;;;2.97;0.55;;;;;;;;;;5043060;28;20036;-45
2022/11/17 12:25:16;;;;;;;1.80;0.50;;;;;;;;;;5047101;28;20021;-44
2022/11/17 12:27:48;;;;;;;1.38;0.95;;;;;;;;;;5048199;28;20483;-45
2022/11/17 12:30:30;;;;;;;1.67;0.60;;;;;;;;;;5039433;28;20036;-44
2022/11/17 12:32:56;;;;;;;1.43;0.53;;;;;;;;;;5046617;28;20998;-45
2022/11/17 12:35:26;;;;;;;1.13;0.50;;;;;;;;;;5049654;28;20033;-45
2022/11/17 12:38:11;;;;;;;1.38;0.52;;;;;;;;;;5047044;28;20052;-44
2022/11/17 12:40:37;;;;;;;1.27;0.47;;;;;;;;;;5047970;28;20490;-49
2022/11/17 12:43:15;;;;;;;2.53;0.65;;;;;;;;;;5045876;28;20080;-46
2022/11/17 12:45:59;;;;;;;0.85;0.68;;;;;;;;;;5049168;28;20378;-45
2022/11/17 12:48:36;;;;;;;3.58;0.73;;;;;;;;;;5046986;28;20052;-44
2022/11/17 12:51:13;;;;;;;2.40;0.75;;;;;;;;;;5049669;28;20049;-44
2022/11/17 12:53:55;;;;;;;2.35;0.68;;;;;;;;;;5044896;28;20045;-48
2022/11/17 12:56:27;;;;;;;1.40;0.60;;;;;;;;;;5051680;28;20457;-44
2022/11/17 12:59:11;;;;;;;2.58;0.80;;;;;;;;;;5052400;28;20045;-44
2022/11/17 13:01:43;;;;;;;1.45;0.60;;;;;;;;;;5053762;28;20441;-48
2022/11/17 13:04:09;;;;;;;;;;;;;;;;;;5045517;28;20041;-45
2022/11/17 13:06:35;;;;;;;3.00;1.13;;;;;;;;;;5053902;28;19909;-44
2022/11/17 13:09:04;;;;;;;1.65;0.57;;;;;;;;;;5049533;28;20111;-44
2022/11/17 13:11:30;;;;;;;1.15;0.80;;;;;;;;;;5053416;28;20921;-44
2022/11/17 13:14:13;;;;;;;1.27;0.50;;;;;;;;;;5048766;28;20294;-44
2022/11/17 13:16:47;;;;;;;1.55;0.75;;;;;;;;;;5052604;28;20040;-48
2022/11/17 13:19:32;;;;;;;1.65;0.57;;;;;;;;;;5052319;28;20102;-45
2022/11/17 13:21:59;;;;;;;2.75;0.50;;;;;;;;;;5052196;28;20152;-46
2022/11/17 13:24:30;;;;;;;1.55;0.70;;;;;;;;;;5046514;28;20831;-44
2022/11/17 13:27:00;;;;;;;2.08;0.63;;;;;;;;;;5052924;28;20025;-44
2022/11/17 13:29:26;;;;;;;1.00;0.70;;;;;;;;;;5053448;28;20053;-44
2022/11/17 13:32:27;;;;;;;1.15;0.63;;;;;;;;;;5052387;28;20025;-44
2022/11/17 13:34:58;;;;;;;0.98;0.73;;;;;;;;;;5015594;28;20120;-44
2022/11/17 13:37:28;;;;;;;1.35;0.55;;;;;;;;;;5036359;28;20075;-45
2022/11/17 13:39:54;;;;;;;2.67;0.90;;;;;;;;;;5047633;28;20031;-45
2022/11/17 13:42:20;;;;;;;3.45;0.57;;;;;;;;;;5054749;28;20024;-44
2022/11/17 13:44:47;;;;;;;2.08;0.80;;;;;;;;;;5053635;28;20040;-45
2022/11/17 13:47:41;;;;;;;2.47;0.68;;;;;;;;;;5054963;28;20029;-44
2022/11/17 13:50:40;;;;;;;1.85;0.80;;;;;;;;;;5054116;28;20036;-46
2022/11/17 13:53:15;;;;;;;2.38;0.82;;;;;;;;;;5010763;28;20041;-44
2022/11/17 13:55:47;;;;;;;1.33;0.90;;;;;;;;;;5035129;28;20017;-44
2022/11/17 13:58:25;;;;;;;2.20;0.68;;;;;;;;;;5054244;28;20028;-44
2022/11/17 14:00:58;;;;;;;1.65;0.93;;;;;;;;;;5052741;28;20032;-45
2022/11/17 14:03:35;;;;;;;1.30;0.70;;;;;;;;;;5053764;28;20090;-44
2022/11/17 14:06:03;;;;;;;2.03;0.50;;;;;;;;;;5052343;28;20108;-44
2022/11/17 14:08:30;;;;;;;1.90;0.80;;;;;;;;;;5053757;28;20036;-45
2022/11/17 14:11:11;;;;;;;1.80;0.60;;;;;;;;;;5052295;28;20109;-45
2022/11/17 14:13:39;;;;;;;3.35;0.75;;;;;;;;;;5053013;28;20025;-49
2022/11/17 14:16:18;;;;;;;1.55;0.60;;;;;;;;;;5053003;28;20025;-44
2022/11/17 14:18:54;;;;;;;1.67;0.50;;;;;;;;;;5052709;28;20033;-46
2022/11/17 14:21:19;;;;;;;3.00;0.50;;;;;;;;;;5052584;28;20521;-45
2022/11/17 14:23:45;;;;;;;1.92;0.82;;;;;;;;;;5051392;28;20025;-44
2022/11/17 14:26:22;;;;;;;2.05;0.65;;;;;;;;;;5052871;28;20522;-44
2022/11/17 14:28:49;;;;;;;2.95;0.80;;;;;;;;;;5052643;28;20490;-44
2022/11/17 14:31:15;;;;;;;3.03;0.70;;;;;;;;;;5050196;28;20374;-44
2022/11/17 14:33:41;;;;;;;2.35;0.80;;;;;;;;;;5052042;28;20029;-49
2022/11/17 14:36:12;;;;;;;1.98;1.23;;;;;;;;;;5052729;28;20508;-44
2022/11/17 14:38:38;;;;;;;1.00;0.57;;;;;;;;;;5053459;28;20025;-50
2022/11/17 14:41:04;;;;;;;3.38;0.75;;;;;;;;;;5051967;28;20028;-45
2022/11/17 14:43:31;;;;;;;4.30;0.63;;;;;;;;;;5052276;28;20020;-45
2022/11/17 14:45:57;;;;;;;2.67;0.70;;;;;;;;;;5051961;28;20029;-44
2022/11/17 14:48:23;;;;;;;2.13;0.77;;;;;;;;;;5053071;28;20044;-44
2022/11/17 14:50:55;;;;;;;2.75;0.93;;;;;;;;;;5051827;28;20028;-44
2022/11/17 14:53:20;;;;;;;2.20;0.60;;;;;;;;;;5052896;28;20033;-44
2022/11/17 14:55:46;;;;;;;1.65;0.70;;;;;;;;;;5051513;28;20033;-45
2022/11/17 14:58:12;;;;;;;1.85;1.00;;;;;;;;;;5053070;28;20087;-45
2022/11/17 15:00:38;;;;;;;2.35;1.10;;;;;;;;;;5052268;28;20021;-49
2022/11/17 15:03:04;;;;;;;3.17;0.90;;;;;;;;;;5052674;28;20031;-45
2022/11/17 15:05:30;;;;;;;4.20;1.40;;;;;;;;;;5051739;28;20402;-44
2022/11/17 15:07:56;;;;;;;1.95;0.88;;;;;;;;;;5052149;28;20025;-44
2022/11/17 15:10:22;;;;;;;5.13;1.23;;;;;;;;;;5054275;28;20107;-45
2022/11/17 15:12:48;;;;;;;3.92;1.30;;;;;;;;;;5051478;28;20112;-44
2022/11/17 15:15:14;;;;;;;4.25;1.20;;;;;;;;;;5051705;28;20104;-44
2022/11/17 15:17:40;;;;;;;3.17;1.20;;;;;;;;;;5051599;28;20373;-49
2022/11/17 15:20:06;;;;;;;1.70;1.00;;;;;;;;;;5050752;28;20128;-45
2022/11/17 15:22:32;;;;;;;3.78;1.30;;;;;;;;;;5052267;28;20036;-44